sensor_id;sensor_type;location;lat;lon;timestamp;temperature;humidity
52044;DHT22;38053;53.100;6.078;2023-11-18T00:00:19;2.00;99.90
52044;DHT22;38053;53.100;6.078;2023-11-18T00:02:45;2.00;99.90
52044;DHT22;38053;53.100;6.078;2023-11-18T00:05:12;2.00;99.90
52044;DHT22;38053;53.100;6.078;2023-11-18T00:07:38;2.00;99.90
52044;DHT22;38053;53.100;6.078;2023-11-18T00:10:04;2.00;99.90
52044;DHT22;38053;53.100;6.078;2023-11-18T00:12:30;2.00;99.90
52044;DHT22;38053;53.100;6.078;2023-11-18T00:14:56;2.00;99.90
52044;DHT22;38053;53.100;6.078;2023-11-18T00:17:22;2.10;99.90
52044;DHT22;38053;53.100;6.078;2023-11-18T00:19:48;2.10;99.90
52044;DHT22;38053;53.100;6.078;2023-11-18T00:22:14;2.10;99.90
52044;DHT22;38053;53.100;6.078;2023-11-18T00:24:39;2.20;99.90
52044;DHT22;38053;53.100;6.078;2023-11-18T00:27:05;2.20;99.90
52044;DHT22;38053;53.100;6.078;2023-11-18T00:29:35;2.20;99.90
52044;DHT22;38053;53.100;6.078;2023-11-18T00:32:01;2.20;99.90
52044;DHT22;38053;53.100;6.078;2023-11-18T00:34:27;2.20;99.90
52044;DHT22;38053;53.100;6.078;2023-11-18T00:36:55;2.20;99.90
52044;DHT22;38053;53.100;6.078;2023-11-18T00:39:23;2.20;99.90
52044;DHT22;38053;53.100;6.078;2023-11-18T00:41:49;2.20;99.90
52044;DHT22;38053;53.100;6.078;2023-11-18T00:44:15;2.20;99.90
52044;DHT22;38053;53.100;6.078;2023-11-18T00:46:41;2.10;99.90
52044;DHT22;38053;53.100;6.078;2023-11-18T00:49:07;2.20;99.90
52044;DHT22;38053;53.100;6.078;2023-11-18T00:51:33;2.20;99.90
52044;DHT22;38053;53.100;6.078;2023-11-18T00:53:58;2.20;99.90
52044;DHT22;38053;53.100;6.078;2023-11-18T00:56:26;2.10;99.90
52044;DHT22;38053;53.100;6.078;2023-11-18T00:58:53;2.20;99.90
52044;DHT22;38053;53.100;6.078;2023-11-18T01:01:18;2.10;99.90
52044;DHT22;38053;53.100;6.078;2023-11-18T01:03:45;2.10;99.90
52044;DHT22;38053;53.100;6.078;2023-11-18T01:06:12;2.10;99.90
52044;DHT22;38053;53.100;6.078;2023-11-18T01:08:37;2.10;99.90
52044;DHT22;38053;53.100;6.078;2023-11-18T01:11:04;2.10;99.90
52044;DHT22;38053;53.100;6.078;2023-11-18T01:13:30;2.10;99.90
52044;DHT22;38053;53.100;6.078;2023-11-18T01:15:57;2.10;99.90
52044;DHT22;38053;53.100;6.078;2023-11-18T01:18:23;2.10;99.90
52044;DHT22;38053;53.100;6.078;2023-11-18T01:20:49;2.20;99.90
52044;DHT22;38053;53.100;6.078;2023-11-18T01:23:14;2.20;99.90
52044;DHT22;38053;53.100;6.078;2023-11-18T01:25:40;2.20;99.90
52044;DHT22;38053;53.100;6.078;2023-11-18T01:28:07;2.30;99.90
52044;DHT22;38053;53.100;6.078;2023-11-18T01:30:32;2.40;99.90
52044;DHT22;38053;53.100;6.078;2023-11-18T01:32:59;2.40;99.90
52044;DHT22;38053;53.100;6.078;2023-11-18T01:35:27;2.50;99.90
52044;DHT22;38053;53.100;6.078;2023-11-18T01:37:56;2.50;99.90
52044;DHT22;38053;53.100;6.078;2023-11-18T01:40:22;2.60;99.90
52044;DHT22;38053;53.100;6.078;2023-11-18T01:42:49;2.60;99.90
52044;DHT22;38053;53.100;6.078;2023-11-18T01:45:15;2.60;99.90
52044;DHT22;38053;53.100;6.078;2023-11-18T01:47:43;2.60;99.90
52044;DHT22;38053;53.100;6.078;2023-11-18T01:50:10;2.60;99.90
52044;DHT22;38053;53.100;6.078;2023-11-18T01:52:39;2.60;99.90
52044;DHT22;38053;53.100;6.078;2023-11-18T01:55:06;2.60;99.90
52044;DHT22;38053;53.100;6.078;2023-11-18T01:57:34;2.70;99.90
52044;DHT22;38053;53.100;6.078;2023-11-18T02:00:00;2.60;99.90
52044;DHT22;38053;53.100;6.078;2023-11-18T02:02:31;2.70;99.90
52044;DHT22;38053;53.100;6.078;2023-11-18T02:04:58;2.70;99.90
52044;DHT22;38053;53.100;6.078;2023-11-18T02:07:27;2.70;99.90
52044;DHT22;38053;53.100;6.078;2023-11-18T02:09:54;2.70;99.90
52044;DHT22;38053;53.100;6.078;2023-11-18T02:12:31;2.70;99.90
52044;DHT22;38053;53.100;6.078;2023-11-18T02:15:00;2.70;99.90
52044;DHT22;38053;53.100;6.078;2023-11-18T02:17:28;2.80;99.90
52044;DHT22;38053;53.100;6.078;2023-11-18T02:19:56;2.80;99.90
52044;DHT22;38053;53.100;6.078;2023-11-18T02:22:23;2.80;99.90
52044;DHT22;38053;53.100;6.078;2023-11-18T02:24:49;2.80;99.90
52044;DHT22;38053;53.100;6.078;2023-11-18T02:27:16;2.80;99.90
52044;DHT22;38053;53.100;6.078;2023-11-18T02:29:45;2.80;99.90
52044;DHT22;38053;53.100;6.078;2023-11-18T02:32:29;2.90;99.90
52044;DHT22;38053;53.100;6.078;2023-11-18T02:37:54;2.90;99.90
52044;DHT22;38053;53.100;6.078;2023-11-18T02:40:31;2.90;99.90
52044;DHT22;38053;53.100;6.078;2023-11-18T02:42:59;3.00;99.90
52044;DHT22;38053;53.100;6.078;2023-11-18T02:45:26;3.00;99.90
52044;DHT22;38053;53.100;6.078;2023-11-18T02:47:53;3.00;99.90
52044;DHT22;38053;53.100;6.078;2023-11-18T02:50:25;3.00;99.90
52044;DHT22;38053;53.100;6.078;2023-11-18T02:52:53;3.10;99.90
52044;DHT22;38053;53.100;6.078;2023-11-18T02:55:19;3.10;99.90
52044;DHT22;38053;53.100;6.078;2023-11-18T02:57:47;3.10;99.90
52044;DHT22;38053;53.100;6.078;2023-11-18T03:00:13;3.10;99.90
52044;DHT22;38053;53.100;6.078;2023-11-18T03:02:45;3.10;99.90
52044;DHT22;38053;53.100;6.078;2023-11-18T03:05:12;3.10;99.90
52044;DHT22;38053;53.100;6.078;2023-11-18T03:07:39;3.20;99.90
52044;DHT22;38053;53.100;6.078;2023-11-18T03:10:07;3.10;99.90
52044;DHT22;38053;53.100;6.078;2023-11-18T03:12:38;3.10;99.90
52044;DHT22;38053;53.100;6.078;2023-11-18T03:15:06;3.20;99.90
52044;DHT22;38053;53.100;6.078;2023-11-18T03:17:35;3.10;99.90
52044;DHT22;38053;53.100;6.078;2023-11-18T03:20:00;3.20;99.90
52044;DHT22;38053;53.100;6.078;2023-11-18T03:22:26;3.10;99.90
52044;DHT22;38053;53.100;6.078;2023-11-18T03:24:52;3.10;99.90
52044;DHT22;38053;53.100;6.078;2023-11-18T03:27:17;3.10;99.90
52044;DHT22;38053;53.100;6.078;2023-11-18T03:29:44;3.20;99.90
52044;DHT22;38053;53.100;6.078;2023-11-18T03:32:11;3.20;99.90
52044;DHT22;38053;53.100;6.078;2023-11-18T03:34:38;3.20;99.90
52044;DHT22;38053;53.100;6.078;2023-11-18T03:37:04;3.20;99.90
52044;DHT22;38053;53.100;6.078;2023-11-18T03:39:29;3.20;99.90
52044;DHT22;38053;53.100;6.078;2023-11-18T03:41:56;3.20;99.90
52044;DHT22;38053;53.100;6.078;2023-11-18T03:44:23;3.20;99.90
52044;DHT22;38053;53.100;6.078;2023-11-18T03:46:49;3.20;99.90
52044;DHT22;38053;53.100;6.078;2023-11-18T03:49:15;3.20;99.90
52044;DHT22;38053;53.100;6.078;2023-11-18T03:51:41;3.30;99.90
52044;DHT22;38053;53.100;6.078;2023-11-18T03:54:07;3.20;99.90
52044;DHT22;38053;53.100;6.078;2023-11-18T03:56:35;3.20;99.90
52044;DHT22;38053;53.100;6.078;2023-11-18T03:59:01;3.30;99.90
52044;DHT22;38053;53.100;6.078;2023-11-18T04:01:27;3.20;99.90
52044;DHT22;38053;53.100;6.078;2023-11-18T04:03:53;3.30;99.90
52044;DHT22;38053;53.100;6.078;2023-11-18T04:06:20;3.30;99.90
52044;DHT22;38053;53.100;6.078;2023-11-18T04:08:47;3.20;99.90
52044;DHT22;38053;53.100;6.078;2023-11-18T04:11:14;3.30;99.90
52044;DHT22;38053;53.100;6.078;2023-11-18T04:13:44;3.20;99.90
52044;DHT22;38053;53.100;6.078;2023-11-18T04:16:13;3.30;99.90
52044;DHT22;38053;53.100;6.078;2023-11-18T04:18:41;3.30;99.90
52044;DHT22;38053;53.100;6.078;2023-11-18T04:21:07;3.30;99.90
52044;DHT22;38053;53.100;6.078;2023-11-18T04:23:37;3.30;99.90
52044;DHT22;38053;53.100;6.078;2023-11-18T04:26:08;3.30;99.90
52044;DHT22;38053;53.100;6.078;2023-11-18T04:28:35;3.30;99.90
52044;DHT22;38053;53.100;6.078;2023-11-18T04:31:01;3.40;99.90
52044;DHT22;38053;53.100;6.078;2023-11-18T04:33:28;3.40;99.90
52044;DHT22;38053;53.100;6.078;2023-11-18T04:35:55;3.40;99.90
52044;DHT22;38053;53.100;6.078;2023-11-18T04:38:24;3.40;99.90
52044;DHT22;38053;53.100;6.078;2023-11-18T04:40:51;3.40;99.90
52044;DHT22;38053;53.100;6.078;2023-11-18T04:43:17;3.50;99.90
52044;DHT22;38053;53.100;6.078;2023-11-18T04:45:42;3.50;99.90
52044;DHT22;38053;53.100;6.078;2023-11-18T04:48:08;3.50;99.90
52044;DHT22;38053;53.100;6.078;2023-11-18T04:50:34;3.50;99.90
52044;DHT22;38053;53.100;6.078;2023-11-18T04:53:00;3.50;99.90
52044;DHT22;38053;53.100;6.078;2023-11-18T04:55:26;3.60;99.90
52044;DHT22;38053;53.100;6.078;2023-11-18T04:57:55;3.60;99.90
52044;DHT22;38053;53.100;6.078;2023-11-18T05:00:21;3.60;99.90
52044;DHT22;38053;53.100;6.078;2023-11-18T05:02:47;3.60;99.90
52044;DHT22;38053;53.100;6.078;2023-11-18T05:05:16;3.60;99.90
52044;DHT22;38053;53.100;6.078;2023-11-18T05:07:45;3.60;99.90
52044;DHT22;38053;53.100;6.078;2023-11-18T05:10:11;3.60;99.90
52044;DHT22;38053;53.100;6.078;2023-11-18T05:12:38;3.60;99.90
52044;DHT22;38053;53.100;6.078;2023-11-18T05:15:06;3.60;99.90
52044;DHT22;38053;53.100;6.078;2023-11-18T05:17:39;3.60;99.90
52044;DHT22;38053;53.100;6.078;2023-11-18T05:20:05;3.60;99.90
52044;DHT22;38053;53.100;6.078;2023-11-18T05:22:35;3.60;99.90
52044;DHT22;38053;53.100;6.078;2023-11-18T05:25:02;3.60;99.90
52044;DHT22;38053;53.100;6.078;2023-11-18T05:27:30;3.60;99.90
52044;DHT22;38053;53.100;6.078;2023-11-18T05:29:57;3.60;99.90
52044;DHT22;38053;53.100;6.078;2023-11-18T05:32:30;3.60;99.90
52044;DHT22;38053;53.100;6.078;2023-11-18T05:34:56;3.60;99.90
52044;DHT22;38053;53.100;6.078;2023-11-18T05:37:24;3.60;99.90
52044;DHT22;38053;53.100;6.078;2023-11-18T05:39:50;3.60;99.90
52044;DHT22;38053;53.100;6.078;2023-11-18T05:42:25;3.60;99.90
52044;DHT22;38053;53.100;6.078;2023-11-18T05:44:51;3.60;99.90
52044;DHT22;38053;53.100;6.078;2023-11-18T05:47:24;3.60;99.90
52044;DHT22;38053;53.100;6.078;2023-11-18T05:49:51;3.60;99.90
52044;DHT22;38053;53.100;6.078;2023-11-18T05:52:17;3.60;99.90
52044;DHT22;38053;53.100;6.078;2023-11-18T05:54:43;3.60;99.90
52044;DHT22;38053;53.100;6.078;2023-11-18T05:57:09;3.60;99.90
52044;DHT22;38053;53.100;6.078;2023-11-18T05:59:35;3.60;99.90
52044;DHT22;38053;53.100;6.078;2023-11-18T06:02:01;3.60;99.90
52044;DHT22;38053;53.100;6.078;2023-11-18T06:04:29;3.60;99.90
52044;DHT22;38053;53.100;6.078;2023-11-18T06:06:56;3.60;99.90
52044;DHT22;38053;53.100;6.078;2023-11-18T06:09:22;3.60;99.90
52044;DHT22;38053;53.100;6.078;2023-11-18T06:11:51;3.60;99.90
52044;DHT22;38053;53.100;6.078;2023-11-18T06:14:19;3.60;99.90
52044;DHT22;38053;53.100;6.078;2023-11-18T06:16:45;3.70;99.90
52044;DHT22;38053;53.100;6.078;2023-11-18T06:19:13;3.70;99.90
52044;DHT22;38053;53.100;6.078;2023-11-18T06:21:40;3.70;99.90
52044;DHT22;38053;53.100;6.078;2023-11-18T06:24:06;3.70;99.90
52044;DHT22;38053;53.100;6.078;2023-11-18T06:26:32;3.70;99.90
52044;DHT22;38053;53.100;6.078;2023-11-18T06:29:02;3.70;99.90
52044;DHT22;38053;53.100;6.078;2023-11-18T06:31:29;3.80;99.90
52044;DHT22;38053;53.100;6.078;2023-11-18T06:33:55;3.80;99.90
52044;DHT22;38053;53.100;6.078;2023-11-18T06:36:22;3.80;99.90
52044;DHT22;38053;53.100;6.078;2023-11-18T06:38:52;3.80;99.90
52044;DHT22;38053;53.100;6.078;2023-11-18T06:41:20;3.80;99.90
52044;DHT22;38053;53.100;6.078;2023-11-18T06:43:48;3.80;99.90
52044;DHT22;38053;53.100;6.078;2023-11-18T06:46:21;3.80;99.90
52044;DHT22;38053;53.100;6.078;2023-11-18T06:48:51;3.80;99.90
52044;DHT22;38053;53.100;6.078;2023-11-18T06:51:21;3.80;99.90
52044;DHT22;38053;53.100;6.078;2023-11-18T06:53:53;3.80;99.90
52044;DHT22;38053;53.100;6.078;2023-11-18T06:56:20;3.90;99.90
52044;DHT22;38053;53.100;6.078;2023-11-18T06:58:46;3.90;99.90
52044;DHT22;38053;53.100;6.078;2023-11-18T07:01:13;3.80;99.90
52044;DHT22;38053;53.100;6.078;2023-11-18T07:03:41;3.90;99.90
52044;DHT22;38053;53.100;6.078;2023-11-18T07:06:07;3.80;99.90
52044;DHT22;38053;53.100;6.078;2023-11-18T07:08:35;3.90;99.90
52044;DHT22;38053;53.100;6.078;2023-11-18T07:11:02;3.90;99.90
52044;DHT22;38053;53.100;6.078;2023-11-18T07:13:29;3.90;99.90
52044;DHT22;38053;53.100;6.078;2023-11-18T07:15:55;4.00;99.90
52044;DHT22;38053;53.100;6.078;2023-11-18T07:18:23;4.00;99.90
52044;DHT22;38053;53.100;6.078;2023-11-18T07:20:49;4.00;99.90
52044;DHT22;38053;53.100;6.078;2023-11-18T07:23:18;4.10;99.90
52044;DHT22;38053;53.100;6.078;2023-11-18T07:25:44;4.10;99.90
52044;DHT22;38053;53.100;6.078;2023-11-18T07:28:11;4.10;99.90
52044;DHT22;38053;53.100;6.078;2023-11-18T07:30:37;4.10;99.90
52044;DHT22;38053;53.100;6.078;2023-11-18T07:33:03;4.20;99.90
52044;DHT22;38053;53.100;6.078;2023-11-18T07:35:29;4.20;99.90
52044;DHT22;38053;53.100;6.078;2023-11-18T07:37:55;4.20;99.90
52044;DHT22;38053;53.100;6.078;2023-11-18T07:40:22;4.20;99.90
52044;DHT22;38053;53.100;6.078;2023-11-18T07:42:56;4.20;99.90
52044;DHT22;38053;53.100;6.078;2023-11-18T07:45:22;4.20;99.90
52044;DHT22;38053;53.100;6.078;2023-11-18T07:47:52;4.30;99.90
52044;DHT22;38053;53.100;6.078;2023-11-18T07:50:18;4.30;99.90
52044;DHT22;38053;53.100;6.078;2023-11-18T07:52:46;4.30;99.90
52044;DHT22;38053;53.100;6.078;2023-11-18T07:55:13;4.30;99.90
52044;DHT22;38053;53.100;6.078;2023-11-18T07:57:39;4.40;99.90
52044;DHT22;38053;53.100;6.078;2023-11-18T08:00:06;4.40;99.90
52044;DHT22;38053;53.100;6.078;2023-11-18T08:02:36;4.40;99.90
52044;DHT22;38053;53.100;6.078;2023-11-18T08:05:02;4.40;99.90
52044;DHT22;38053;53.100;6.078;2023-11-18T08:07:29;4.50;99.90
52044;DHT22;38053;53.100;6.078;2023-11-18T08:09:54;4.50;99.90
52044;DHT22;38053;53.100;6.078;2023-11-18T08:12:20;4.50;99.90
52044;DHT22;38053;53.100;6.078;2023-11-18T08:14:46;4.50;99.90
52044;DHT22;38053;53.100;6.078;2023-11-18T08:17:12;4.50;99.90
52044;DHT22;38053;53.100;6.078;2023-11-18T08:19:39;4.50;99.90
52044;DHT22;38053;53.100;6.078;2023-11-18T08:22:04;4.60;99.90
52044;DHT22;38053;53.100;6.078;2023-11-18T08:24:31;4.60;99.90
52044;DHT22;38053;53.100;6.078;2023-11-18T08:26:59;4.70;99.90
52044;DHT22;38053;53.100;6.078;2023-11-18T08:29:24;4.70;99.90
52044;DHT22;38053;53.100;6.078;2023-11-18T08:31:56;4.70;99.90
52044;DHT22;38053;53.100;6.078;2023-11-18T08:34:22;4.80;99.90
52044;DHT22;38053;53.100;6.078;2023-11-18T08:36:51;4.80;99.90
52044;DHT22;38053;53.100;6.078;2023-11-18T08:39:17;4.80;99.90
52044;DHT22;38053;53.100;6.078;2023-11-18T08:41:48;4.80;99.90
52044;DHT22;38053;53.100;6.078;2023-11-18T08:44:16;4.90;99.90
52044;DHT22;38053;53.100;6.078;2023-11-18T08:46:43;4.90;99.90
52044;DHT22;38053;53.100;6.078;2023-11-18T08:49:09;4.90;99.90
52044;DHT22;38053;53.100;6.078;2023-11-18T08:51:38;4.90;99.90
52044;DHT22;38053;53.100;6.078;2023-11-18T08:54:07;4.90;99.90
52044;DHT22;38053;53.100;6.078;2023-11-18T08:56:51;4.90;99.90
52044;DHT22;38053;53.100;6.078;2023-11-18T08:59:21;5.00;99.90
52044;DHT22;38053;53.100;6.078;2023-11-18T09:01:53;5.00;99.90
52044;DHT22;38053;53.100;6.078;2023-11-18T09:04:24;5.00;99.90
52044;DHT22;38053;53.100;6.078;2023-11-18T09:06:54;5.10;99.90
52044;DHT22;38053;53.100;6.078;2023-11-18T09:09:23;5.10;99.90
52044;DHT22;38053;53.100;6.078;2023-11-18T09:11:53;5.20;99.90
52044;DHT22;38053;53.100;6.078;2023-11-18T09:14:22;5.20;99.90
52044;DHT22;38053;53.100;6.078;2023-11-18T09:16:50;5.20;99.90
52044;DHT22;38053;53.100;6.078;2023-11-18T09:19:16;5.20;99.90
52044;DHT22;38053;53.100;6.078;2023-11-18T09:21:43;5.30;99.90
52044;DHT22;38053;53.100;6.078;2023-11-18T09:24:10;5.30;99.90
52044;DHT22;38053;53.100;6.078;2023-11-18T09:26:39;5.30;99.90
52044;DHT22;38053;53.100;6.078;2023-11-18T09:29:05;5.40;99.90
52044;DHT22;38053;53.100;6.078;2023-11-18T09:31:37;5.40;99.90
52044;DHT22;38053;53.100;6.078;2023-11-18T09:34:03;5.40;99.90
52044;DHT22;38053;53.100;6.078;2023-11-18T09:36:32;5.40;99.90
52044;DHT22;38053;53.100;6.078;2023-11-18T09:38:59;5.40;99.90
52044;DHT22;38053;53.100;6.078;2023-11-18T09:41:25;5.50;99.90
52044;DHT22;38053;53.100;6.078;2023-11-18T09:43:53;5.40;99.90
52044;DHT22;38053;53.100;6.078;2023-11-18T09:46:25;5.50;99.90
52044;DHT22;38053;53.100;6.078;2023-11-18T09:49:28;5.50;99.90
52044;DHT22;38053;53.100;6.078;2023-11-18T09:51:59;5.50;99.90
52044;DHT22;38053;53.100;6.078;2023-11-18T09:54:51;5.50;99.90
52044;DHT22;38053;53.100;6.078;2023-11-18T09:57:31;5.50;99.90
52044;DHT22;38053;53.100;6.078;2023-11-18T10:00:02;5.50;99.90
52044;DHT22;38053;53.100;6.078;2023-11-18T10:02:48;5.50;99.90
52044;DHT22;38053;53.100;6.078;2023-11-18T10:05:16;5.50;99.90
52044;DHT22;38053;53.100;6.078;2023-11-18T10:07:46;5.60;99.90
52044;DHT22;38053;53.100;6.078;2023-11-18T10:10:16;5.50;99.90
52044;DHT22;38053;53.100;6.078;2023-11-18T10:12:46;5.50;99.90
52044;DHT22;38053;53.100;6.078;2023-11-18T10:15:21;5.50;99.90
52044;DHT22;38053;53.100;6.078;2023-11-18T10:17:52;5.60;99.90
52044;DHT22;38053;53.100;6.078;2023-11-18T10:20:43;5.60;99.90
52044;DHT22;38053;53.100;6.078;2023-11-18T10:23:16;5.60;99.90
52044;DHT22;38053;53.100;6.078;2023-11-18T10:25:45;5.50;99.90
52044;DHT22;38053;53.100;6.078;2023-11-18T10:28:29;5.50;99.90
52044;DHT22;38053;53.100;6.078;2023-11-18T10:31:06;5.50;99.90
52044;DHT22;38053;53.100;6.078;2023-11-18T10:33:36;5.40;99.90
52044;DHT22;38053;53.100;6.078;2023-11-18T10:36:03;5.50;99.90
52044;DHT22;38053;53.100;6.078;2023-11-18T10:38:31;5.40;99.90
52044;DHT22;38053;53.100;6.078;2023-11-18T10:40:58;5.50;99.90
52044;DHT22;38053;53.100;6.078;2023-11-18T10:43:27;5.40;99.90
52044;DHT22;38053;53.100;6.078;2023-11-18T10:51:11;5.60;99.90
52044;DHT22;38053;53.100;6.078;2023-11-18T10:53:47;5.60;99.90
52044;DHT22;38053;53.100;6.078;2023-11-18T10:56:28;5.60;99.90
52044;DHT22;38053;53.100;6.078;2023-11-18T10:59:05;5.50;99.90
52044;DHT22;38053;53.100;6.078;2023-11-18T11:01:35;5.60;99.90
52044;DHT22;38053;53.100;6.078;2023-11-18T11:04:08;5.60;99.90
52044;DHT22;38053;53.100;6.078;2023-11-18T11:06:43;5.60;99.90
52044;DHT22;38053;53.100;6.078;2023-11-18T11:09:18;5.60;99.90
52044;DHT22;38053;53.100;6.078;2023-11-18T11:14:21;5.60;99.90
52044;DHT22;38053;53.100;6.078;2023-11-18T11:16:55;5.60;99.90
52044;DHT22;38053;53.100;6.078;2023-11-18T11:19:34;5.60;99.90
52044;DHT22;38053;53.100;6.078;2023-11-18T11:22:11;5.60;99.90
52044;DHT22;38053;53.100;6.078;2023-11-18T11:24:54;5.60;99.90
52044;DHT22;38053;53.100;6.078;2023-11-18T11:27:25;5.60;99.90
52044;DHT22;38053;53.100;6.078;2023-11-18T11:30:05;5.60;99.90
52044;DHT22;38053;53.100;6.078;2023-11-18T11:32:45;5.50;99.90
52044;DHT22;38053;53.100;6.078;2023-11-18T11:35:20;5.50;99.90
52044;DHT22;38053;53.100;6.078;2023-11-18T11:37:47;5.50;99.90
52044;DHT22;38053;53.100;6.078;2023-11-18T11:40:14;5.50;99.90
52044;DHT22;38053;53.100;6.078;2023-11-18T11:42:49;5.50;99.90
52044;DHT22;38053;53.100;6.078;2023-11-18T11:45:22;5.50;99.90
52044;DHT22;38053;53.100;6.078;2023-11-18T11:47:52;5.50;99.90
52044;DHT22;38053;53.100;6.078;2023-11-18T11:50:29;5.50;99.90
52044;DHT22;38053;53.100;6.078;2023-11-18T11:53:07;5.50;99.90
52044;DHT22;38053;53.100;6.078;2023-11-18T11:55:49;5.50;99.90
52044;DHT22;38053;53.100;6.078;2023-11-18T11:58:28;5.50;99.90
52044;DHT22;38053;53.100;6.078;2023-11-18T12:01:01;5.50;99.90
52044;DHT22;38053;53.100;6.078;2023-11-18T12:03:38;5.50;99.90
52044;DHT22;38053;53.100;6.078;2023-11-18T12:06:05;5.50;99.90
52044;DHT22;38053;53.100;6.078;2023-11-18T12:08:35;5.50;99.90
52044;DHT22;38053;53.100;6.078;2023-11-18T12:11:02;5.50;99.90
52044;DHT22;38053;53.100;6.078;2023-11-18T12:13:28;5.50;99.90
52044;DHT22;38053;53.100;6.078;2023-11-18T12:15:59;5.50;99.90
52044;DHT22;38053;53.100;6.078;2023-11-18T12:18:31;5.50;99.90
52044;DHT22;38053;53.100;6.078;2023-11-18T12:20:59;5.60;99.90
52044;DHT22;38053;53.100;6.078;2023-11-18T12:23:29;5.50;99.90
52044;DHT22;38053;53.100;6.078;2023-11-18T12:25:56;5.50;99.90
52044;DHT22;38053;53.100;6.078;2023-11-18T12:28:33;5.50;99.90
52044;DHT22;38053;53.100;6.078;2023-11-18T12:31:11;5.50;99.90
52044;DHT22;38053;53.100;6.078;2023-11-18T12:34:00;5.60;99.90
52044;DHT22;38053;53.100;6.078;2023-11-18T12:39:38;5.50;99.90
52044;DHT22;38053;53.100;6.078;2023-11-18T12:42:09;5.50;99.90
52044;DHT22;38053;53.100;6.078;2023-11-18T12:47:24;5.50;99.90
52044;DHT22;38053;53.100;6.078;2023-11-18T12:49:54;5.50;99.90
52044;DHT22;38053;53.100;6.078;2023-11-18T12:52:21;5.50;99.90
52044;DHT22;38053;53.100;6.078;2023-11-18T12:54:48;5.50;99.90
52044;DHT22;38053;53.100;6.078;2023-11-18T12:57:36;5.50;99.90
52044;DHT22;38053;53.100;6.078;2023-11-18T13:00:05;5.50;99.90
52044;DHT22;38053;53.100;6.078;2023-11-18T13:02:36;5.50;99.90
52044;DHT22;38053;53.100;6.078;2023-11-18T13:05:08;5.50;99.90
52044;DHT22;38053;53.100;6.078;2023-11-18T13:07:39;5.50;99.90
52044;DHT22;38053;53.100;6.078;2023-11-18T13:10:05;5.60;99.90
52044;DHT22;38053;53.100;6.078;2023-11-18T13:12:31;5.50;99.90
52044;DHT22;38053;53.100;6.078;2023-11-18T13:14:57;5.60;99.90
52044;DHT22;38053;53.100;6.078;2023-11-18T13:17:23;5.60;99.90
52044;DHT22;38053;53.100;6.078;2023-11-18T13:19:48;5.60;99.90
52044;DHT22;38053;53.100;6.078;2023-11-18T13:22:19;5.60;99.90
52044;DHT22;38053;53.100;6.078;2023-11-18T13:24:45;5.60;99.90
52044;DHT22;38053;53.100;6.078;2023-11-18T13:27:16;5.70;99.90
52044;DHT22;38053;53.100;6.078;2023-11-18T13:29:47;5.70;99.90
52044;DHT22;38053;53.100;6.078;2023-11-18T13:32:17;5.70;99.90
52044;DHT22;38053;53.100;6.078;2023-11-18T13:34:43;5.70;99.90
52044;DHT22;38053;53.100;6.078;2023-11-18T13:37:11;5.70;99.90
52044;DHT22;38053;53.100;6.078;2023-11-18T13:39:42;5.70;99.90
52044;DHT22;38053;53.100;6.078;2023-11-18T13:44:45;5.70;99.90
52044;DHT22;38053;53.100;6.078;2023-11-18T13:47:12;5.70;99.90
52044;DHT22;38053;53.100;6.078;2023-11-18T13:49:39;5.70;99.90
52044;DHT22;38053;53.100;6.078;2023-11-18T13:52:09;5.70;99.90
52044;DHT22;38053;53.100;6.078;2023-11-18T13:54:37;5.70;99.90
52044;DHT22;38053;53.100;6.078;2023-11-18T13:57:04;5.80;99.90
52044;DHT22;38053;53.100;6.078;2023-11-18T13:59:31;5.80;99.90
52044;DHT22;38053;53.100;6.078;2023-11-18T14:01:58;5.80;99.90
52044;DHT22;38053;53.100;6.078;2023-11-18T14:04:28;5.80;99.90
52044;DHT22;38053;53.100;6.078;2023-11-18T14:06:59;5.80;99.90
52044;DHT22;38053;53.100;6.078;2023-11-18T14:09:25;5.90;99.90
52044;DHT22;38053;53.100;6.078;2023-11-18T14:11:53;5.80;99.90
52044;DHT22;38053;53.100;6.078;2023-11-18T14:14:22;5.80;99.90
52044;DHT22;38053;53.100;6.078;2023-11-18T14:16:49;5.80;99.90
52044;DHT22;38053;53.100;6.078;2023-11-18T14:19:15;5.90;99.90
52044;DHT22;38053;53.100;6.078;2023-11-18T14:21:41;5.80;99.90
52044;DHT22;38053;53.100;6.078;2023-11-18T14:24:08;5.90;99.90
52044;DHT22;38053;53.100;6.078;2023-11-18T14:26:34;5.90;99.90
52044;DHT22;38053;53.100;6.078;2023-11-18T14:29:00;5.90;99.90
52044;DHT22;38053;53.100;6.078;2023-11-18T14:31:26;5.90;99.90
52044;DHT22;38053;53.100;6.078;2023-11-18T14:33:52;5.90;99.90
52044;DHT22;38053;53.100;6.078;2023-11-18T14:36:18;5.90;99.90
52044;DHT22;38053;53.100;6.078;2023-11-18T14:38:45;5.90;99.90
52044;DHT22;38053;53.100;6.078;2023-11-18T14:41:12;6.00;99.90
52044;DHT22;38053;53.100;6.078;2023-11-18T14:43:37;6.00;99.90
52044;DHT22;38053;53.100;6.078;2023-11-18T14:46:03;6.00;99.90
52044;DHT22;38053;53.100;6.078;2023-11-18T14:48:30;6.00;99.90
52044;DHT22;38053;53.100;6.078;2023-11-18T14:50:55;6.00;99.90
52044;DHT22;38053;53.100;6.078;2023-11-18T14:53:25;6.00;99.90
52044;DHT22;38053;53.100;6.078;2023-11-18T14:55:51;6.10;99.90
52044;DHT22;38053;53.100;6.078;2023-11-18T14:58:17;6.10;99.90
52044;DHT22;38053;53.100;6.078;2023-11-18T15:00:43;6.10;99.90
52044;DHT22;38053;53.100;6.078;2023-11-18T15:03:08;6.10;99.90
52044;DHT22;38053;53.100;6.078;2023-11-18T15:05:35;6.10;99.90
52044;DHT22;38053;53.100;6.078;2023-11-18T15:08:01;6.20;99.90
52044;DHT22;38053;53.100;6.078;2023-11-18T15:10:28;6.20;99.90
52044;DHT22;38053;53.100;6.078;2023-11-18T15:12:55;6.20;99.90
52044;DHT22;38053;53.100;6.078;2023-11-18T15:15:25;6.20;99.90
52044;DHT22;38053;53.100;6.078;2023-11-18T15:18:06;6.20;99.90
52044;DHT22;38053;53.100;6.078;2023-11-18T15:20:42;6.20;99.90
52044;DHT22;38053;53.100;6.078;2023-11-18T15:23:12;6.20;99.90
52044;DHT22;38053;53.100;6.078;2023-11-18T15:25:38;6.20;99.90
52044;DHT22;38053;53.100;6.078;2023-11-18T15:28:05;6.20;99.90
52044;DHT22;38053;53.100;6.078;2023-11-18T15:30:36;6.20;99.90
52044;DHT22;38053;53.100;6.078;2023-11-18T15:33:02;6.20;99.90
52044;DHT22;38053;53.100;6.078;2023-11-18T15:35:28;6.20;99.90
52044;DHT22;38053;53.100;6.078;2023-11-18T15:37:54;6.10;99.90
52044;DHT22;38053;53.100;6.078;2023-11-18T15:40:20;6.10;99.90
52044;DHT22;38053;53.100;6.078;2023-11-18T15:42:50;6.20;99.90
52044;DHT22;38053;53.100;6.078;2023-11-18T15:45:21;6.10;99.90
52044;DHT22;38053;53.100;6.078;2023-11-18T15:47:49;6.20;99.90
52044;DHT22;38053;53.100;6.078;2023-11-18T15:50:16;6.20;99.90
52044;DHT22;38053;53.100;6.078;2023-11-18T15:52:42;6.10;99.90
52044;DHT22;38053;53.100;6.078;2023-11-18T15:55:09;6.20;99.90
52044;DHT22;38053;53.100;6.078;2023-11-18T15:57:43;6.20;99.90
52044;DHT22;38053;53.100;6.078;2023-11-18T16:00:10;6.20;99.90
52044;DHT22;38053;53.100;6.078;2023-11-18T16:02:42;6.30;99.90
52044;DHT22;38053;53.100;6.078;2023-11-18T16:05:11;6.20;99.90
52044;DHT22;38053;53.100;6.078;2023-11-18T16:07:39;6.20;99.90
52044;DHT22;38053;53.100;6.078;2023-11-18T16:10:06;6.20;99.90
52044;DHT22;38053;53.100;6.078;2023-11-18T16:12:32;6.20;99.90